sensor_id;sensor_type;location;lat;lon;timestamp;temperature;humidity
24814;DHT22;12904;50.088;11.414;2022-08-20T00:01:24;17.30;99.90
24814;DHT22;12904;50.088;11.414;2022-08-20T00:03:49;17.20;99.90
24814;DHT22;12904;50.088;11.414;2022-08-20T00:06:19;17.20;99.90
24814;DHT22;12904;50.088;11.414;2022-08-20T00:08:45;17.20;99.90
24814;DHT22;12904;50.088;11.414;2022-08-20T00:11:14;17.20;99.90
24814;DHT22;12904;50.088;11.414;2022-08-20T00:13:44;17.10;99.90
24814;DHT22;12904;50.088;11.414;2022-08-20T00:16:12;17.10;99.90
24814;DHT22;12904;50.088;11.414;2022-08-20T00:18:38;17.10;99.90
24814;DHT22;12904;50.088;11.414;2022-08-20T00:21:08;17.10;99.90
24814;DHT22;12904;50.088;11.414;2022-08-20T00:23:40;17.10;99.90
24814;DHT22;12904;50.088;11.414;2022-08-20T00:26:07;17.10;99.90
24814;DHT22;12904;50.088;11.414;2022-08-20T00:28:33;17.10;99.90
24814;DHT22;12904;50.088;11.414;2022-08-20T00:30:58;17.10;99.90
24814;DHT22;12904;50.088;11.414;2022-08-20T00:33:24;17.00;99.90
24814;DHT22;12904;50.088;11.414;2022-08-20T00:35:54;17.00;99.90
24814;DHT22;12904;50.088;11.414;2022-08-20T00:38:32;17.00;99.90
24814;DHT22;12904;50.088;11.414;2022-08-20T00:40:59;17.00;99.90
24814;DHT22;12904;50.088;11.414;2022-08-20T00:45:59;17.00;99.90
24814;DHT22;12904;50.088;11.414;2022-08-20T00:48:28;17.00;99.90
24814;DHT22;12904;50.088;11.414;2022-08-20T00:51:02;16.90;99.90
24814;DHT22;12904;50.088;11.414;2022-08-20T00:53:30;17.00;99.90
24814;DHT22;12904;50.088;11.414;2022-08-20T00:55:56;16.90;99.90
24814;DHT22;12904;50.088;11.414;2022-08-20T00:58:22;17.00;99.90
24814;DHT22;12904;50.088;11.414;2022-08-20T01:00:49;16.90;99.90
24814;DHT22;12904;50.088;11.414;2022-08-20T01:03:17;16.90;99.90
24814;DHT22;12904;50.088;11.414;2022-08-20T01:05:47;16.90;99.90
24814;DHT22;12904;50.088;11.414;2022-08-20T01:08:15;16.90;99.90
24814;DHT22;12904;50.088;11.414;2022-08-20T01:10:44;16.80;99.90
24814;DHT22;12904;50.088;11.414;2022-08-20T01:13:17;16.90;99.90
24814;DHT22;12904;50.088;11.414;2022-08-20T01:15:46;16.80;99.90
24814;DHT22;12904;50.088;11.414;2022-08-20T01:18:15;16.80;99.90
24814;DHT22;12904;50.088;11.414;2022-08-20T01:20:47;16.80;99.90
24814;DHT22;12904;50.088;11.414;2022-08-20T01:23:38;16.80;99.90
24814;DHT22;12904;50.088;11.414;2022-08-20T01:28:58;16.80;99.90
24814;DHT22;12904;50.088;11.414;2022-08-20T01:31:28;16.80;99.90
24814;DHT22;12904;50.088;11.414;2022-08-20T01:33:55;16.80;99.90
24814;DHT22;12904;50.088;11.414;2022-08-20T01:36:24;16.90;99.90
24814;DHT22;12904;50.088;11.414;2022-08-20T01:38:50;16.80;99.90
24814;DHT22;12904;50.088;11.414;2022-08-20T01:44:16;16.90;99.90
24814;DHT22;12904;50.088;11.414;2022-08-20T01:46:44;16.90;99.90
24814;DHT22;12904;50.088;11.414;2022-08-20T01:49:15;16.80;99.90
24814;DHT22;12904;50.088;11.414;2022-08-20T01:51:42;16.80;99.90
24814;DHT22;12904;50.088;11.414;2022-08-20T01:54:08;16.80;99.90
24814;DHT22;12904;50.088;11.414;2022-08-20T01:56:34;16.80;99.90
24814;DHT22;12904;50.088;11.414;2022-08-20T01:59:03;16.80;99.90
24814;DHT22;12904;50.088;11.414;2022-08-20T02:01:39;16.90;99.90
24814;DHT22;12904;50.088;11.414;2022-08-20T02:04:08;16.90;99.90
24814;DHT22;12904;50.088;11.414;2022-08-20T02:06:38;16.90;99.90
24814;DHT22;12904;50.088;11.414;2022-08-20T02:09:06;16.90;99.90
24814;DHT22;12904;50.088;11.414;2022-08-20T02:11:33;16.90;99.90
24814;DHT22;12904;50.088;11.414;2022-08-20T02:14:00;16.90;99.90
24814;DHT22;12904;50.088;11.414;2022-08-20T02:16:29;16.90;99.90
24814;DHT22;12904;50.088;11.414;2022-08-20T02:18:59;16.80;99.90
24814;DHT22;12904;50.088;11.414;2022-08-20T02:21:28;16.90;99.90
24814;DHT22;12904;50.088;11.414;2022-08-20T02:23:55;16.90;99.90
24814;DHT22;12904;50.088;11.414;2022-08-20T02:26:21;16.90;99.90
24814;DHT22;12904;50.088;11.414;2022-08-20T02:28:49;16.90;99.90
24814;DHT22;12904;50.088;11.414;2022-08-20T02:31:17;16.90;99.90
24814;DHT22;12904;50.088;11.414;2022-08-20T02:33:44;16.90;99.90
24814;DHT22;12904;50.088;11.414;2022-08-20T02:36:10;16.90;99.90
24814;DHT22;12904;50.088;11.414;2022-08-20T02:38:38;16.90;99.90
24814;DHT22;12904;50.088;11.414;2022-08-20T02:41:04;16.90;99.90
24814;DHT22;12904;50.088;11.414;2022-08-20T02:43:30;16.90;99.90
24814;DHT22;12904;50.088;11.414;2022-08-20T02:45:57;16.90;99.90
24814;DHT22;12904;50.088;11.414;2022-08-20T02:48:24;16.90;99.90
24814;DHT22;12904;50.088;11.414;2022-08-20T02:50:52;16.90;99.90
24814;DHT22;12904;50.088;11.414;2022-08-20T02:53:20;16.90;99.90
24814;DHT22;12904;50.088;11.414;2022-08-20T02:55:46;16.90;99.90
24814;DHT22;12904;50.088;11.414;2022-08-20T02:58:13;16.90;99.90
24814;DHT22;12904;50.088;11.414;2022-08-20T03:00:39;16.90;99.90
24814;DHT22;12904;50.088;11.414;2022-08-20T03:03:07;16.90;99.90
24814;DHT22;12904;50.088;11.414;2022-08-20T03:05:33;16.90;99.90
24814;DHT22;12904;50.088;11.414;2022-08-20T03:07:59;16.90;99.90
24814;DHT22;12904;50.088;11.414;2022-08-20T03:10:29;16.90;99.90
24814;DHT22;12904;50.088;11.414;2022-08-20T03:12:56;17.00;99.90
24814;DHT22;12904;50.088;11.414;2022-08-20T03:15:23;16.90;99.90
24814;DHT22;12904;50.088;11.414;2022-08-20T03:17:49;16.90;99.90
24814;DHT22;12904;50.088;11.414;2022-08-20T03:20:15;16.90;99.90
24814;DHT22;12904;50.088;11.414;2022-08-20T03:22:41;16.90;99.90
24814;DHT22;12904;50.088;11.414;2022-08-20T03:25:08;16.90;99.90
24814;DHT22;12904;50.088;11.414;2022-08-20T03:27:34;16.90;99.90
24814;DHT22;12904;50.088;11.414;2022-08-20T03:29:59;16.90;99.90
24814;DHT22;12904;50.088;11.414;2022-08-20T03:32:25;16.90;99.90
24814;DHT22;12904;50.088;11.414;2022-08-20T03:34:51;16.90;99.90
24814;DHT22;12904;50.088;11.414;2022-08-20T03:37:17;16.90;99.90
24814;DHT22;12904;50.088;11.414;2022-08-20T03:39:42;16.90;99.90
24814;DHT22;12904;50.088;11.414;2022-08-20T03:42:08;17.00;99.90
24814;DHT22;12904;50.088;11.414;2022-08-20T03:44:34;16.90;99.90
24814;DHT22;12904;50.088;11.414;2022-08-20T03:47:03;17.00;99.90
24814;DHT22;12904;50.088;11.414;2022-08-20T03:49:32;17.00;99.90
24814;DHT22;12904;50.088;11.414;2022-08-20T03:51:58;17.00;99.90
24814;DHT22;12904;50.088;11.414;2022-08-20T03:54:24;17.00;99.90
24814;DHT22;12904;50.088;11.414;2022-08-20T03:56:50;17.00;99.90
24814;DHT22;12904;50.088;11.414;2022-08-20T03:59:16;17.00;99.90
24814;DHT22;12904;50.088;11.414;2022-08-20T04:01:41;17.00;99.90
24814;DHT22;12904;50.088;11.414;2022-08-20T04:04:07;17.00;99.90
24814;DHT22;12904;50.088;11.414;2022-08-20T04:06:33;17.00;99.90
24814;DHT22;12904;50.088;11.414;2022-08-20T04:08:58;17.00;99.90
24814;DHT22;12904;50.088;11.414;2022-08-20T04:11:24;17.00;99.90
24814;DHT22;12904;50.088;11.414;2022-08-20T04:13:50;17.00;99.90
24814;DHT22;12904;50.088;11.414;2022-08-20T04:16:15;16.90;99.90
24814;DHT22;12904;50.088;11.414;2022-08-20T04:18:41;16.90;99.90
24814;DHT22;12904;50.088;11.414;2022-08-20T04:21:07;16.90;99.90
24814;DHT22;12904;50.088;11.414;2022-08-20T04:23:33;16.90;99.90
24814;DHT22;12904;50.088;11.414;2022-08-20T04:25:59;17.00;99.90
24814;DHT22;12904;50.088;11.414;2022-08-20T04:28:26;17.00;99.90
24814;DHT22;12904;50.088;11.414;2022-08-20T04:30:57;16.90;99.90
24814;DHT22;12904;50.088;11.414;2022-08-20T04:33:25;16.90;99.90
24814;DHT22;12904;50.088;11.414;2022-08-20T04:35:52;16.90;99.90
24814;DHT22;12904;50.088;11.414;2022-08-20T04:38:20;16.90;99.90
24814;DHT22;12904;50.088;11.414;2022-08-20T04:40:46;16.90;99.90
24814;DHT22;12904;50.088;11.414;2022-08-20T04:43:32;16.90;99.90
24814;DHT22;12904;50.088;11.414;2022-08-20T04:46:04;16.90;99.90
24814;DHT22;12904;50.088;11.414;2022-08-20T04:48:31;16.90;99.90
24814;DHT22;12904;50.088;11.414;2022-08-20T04:50:58;16.90;99.90
24814;DHT22;12904;50.088;11.414;2022-08-20T04:53:26;16.90;99.90
24814;DHT22;12904;50.088;11.414;2022-08-20T04:55:54;16.90;99.90
24814;DHT22;12904;50.088;11.414;2022-08-20T04:58:24;17.00;99.90
24814;DHT22;12904;50.088;11.414;2022-08-20T05:00:54;17.00;99.90
24814;DHT22;12904;50.088;11.414;2022-08-20T05:03:21;17.00;99.90
24814;DHT22;12904;50.088;11.414;2022-08-20T05:05:48;17.10;99.90
24814;DHT22;12904;50.088;11.414;2022-08-20T05:08:16;17.10;99.90
24814;DHT22;12904;50.088;11.414;2022-08-20T05:10:42;17.10;99.90
24814;DHT22;12904;50.088;11.414;2022-08-20T05:13:09;17.10;99.90
24814;DHT22;12904;50.088;11.414;2022-08-20T05:15:35;17.10;99.90
24814;DHT22;12904;50.088;11.414;2022-08-20T05:18:04;17.10;99.90
24814;DHT22;12904;50.088;11.414;2022-08-20T05:20:34;17.20;99.90
24814;DHT22;12904;50.088;11.414;2022-08-20T05:23:01;17.20;99.90
24814;DHT22;12904;50.088;11.414;2022-08-20T05:25:28;17.30;99.90
24814;DHT22;12904;50.088;11.414;2022-08-20T05:28:15;17.30;99.90
24814;DHT22;12904;50.088;11.414;2022-08-20T05:30:44;17.40;99.90
24814;DHT22;12904;50.088;11.414;2022-08-20T05:33:10;17.40;99.90
24814;DHT22;12904;50.088;11.414;2022-08-20T05:35:39;17.50;99.90
24814;DHT22;12904;50.088;11.414;2022-08-20T05:38:13;17.50;99.90
24814;DHT22;12904;50.088;11.414;2022-08-20T05:40:41;17.50;99.90
24814;DHT22;12904;50.088;11.414;2022-08-20T05:43:07;17.40;99.90
24814;DHT22;12904;50.088;11.414;2022-08-20T05:45:35;17.40;99.90
24814;DHT22;12904;50.088;11.414;2022-08-20T05:48:16;17.50;99.90
24814;DHT22;12904;50.088;11.414;2022-08-20T05:50:44;17.50;99.90
24814;DHT22;12904;50.088;11.414;2022-08-20T05:53:11;17.50;99.90
24814;DHT22;12904;50.088;11.414;2022-08-20T05:55:38;17.50;99.90
24814;DHT22;12904;50.088;11.414;2022-08-20T05:58:07;17.50;99.90
24814;DHT22;12904;50.088;11.414;2022-08-20T06:00:34;17.60;99.90
24814;DHT22;12904;50.088;11.414;2022-08-20T06:03:00;17.60;99.90
24814;DHT22;12904;50.088;11.414;2022-08-20T06:05:44;17.70;99.90
24814;DHT22;12904;50.088;11.414;2022-08-20T06:08:11;17.70;99.90
24814;DHT22;12904;50.088;11.414;2022-08-20T06:10:39;17.80;99.90
24814;DHT22;12904;50.088;11.414;2022-08-20T06:13:06;17.90;99.90
24814;DHT22;12904;50.088;11.414;2022-08-20T06:15:33;18.00;99.90
24814;DHT22;12904;50.088;11.414;2022-08-20T06:17:59;18.00;99.90
24814;DHT22;12904;50.088;11.414;2022-08-20T06:20:28;18.10;99.90
24814;DHT22;12904;50.088;11.414;2022-08-20T06:22:54;18.20;99.90
24814;DHT22;12904;50.088;11.414;2022-08-20T06:25:20;18.20;99.90
24814;DHT22;12904;50.088;11.414;2022-08-20T06:27:46;18.20;99.90
24814;DHT22;12904;50.088;11.414;2022-08-20T06:30:14;18.30;99.90
24814;DHT22;12904;50.088;11.414;2022-08-20T06:32:41;18.40;99.90
24814;DHT22;12904;50.088;11.414;2022-08-20T06:35:08;18.50;99.90
24814;DHT22;12904;50.088;11.414;2022-08-20T06:37:36;18.60;99.90
24814;DHT22;12904;50.088;11.414;2022-08-20T06:40:16;18.80;99.90
24814;DHT22;12904;50.088;11.414;2022-08-20T06:42:42;19.00;99.90
24814;DHT22;12904;50.088;11.414;2022-08-20T06:45:13;19.10;99.90
24814;DHT22;12904;50.088;11.414;2022-08-20T06:47:42;19.20;99.90
24814;DHT22;12904;50.088;11.414;2022-08-20T06:50:10;19.30;99.90
24814;DHT22;12904;50.088;11.414;2022-08-20T06:52:38;19.40;99.90
24814;DHT22;12904;50.088;11.414;2022-08-20T06:55:06;19.50;99.90
24814;DHT22;12904;50.088;11.414;2022-08-20T06:57:33;19.60;99.90
24814;DHT22;12904;50.088;11.414;2022-08-20T06:59:59;19.70;99.90
24814;DHT22;12904;50.088;11.414;2022-08-20T07:02:25;19.70;99.90
24814;DHT22;12904;50.088;11.414;2022-08-20T07:04:50;19.70;99.90
24814;DHT22;12904;50.088;11.414;2022-08-20T07:07:17;19.80;99.90
24814;DHT22;12904;50.088;11.414;2022-08-20T07:09:44;19.80;99.90
24814;DHT22;12904;50.088;11.414;2022-08-20T07:12:10;19.80;99.90
24814;DHT22;12904;50.088;11.414;2022-08-20T07:14:36;19.80;99.90
24814;DHT22;12904;50.088;11.414;2022-08-20T07:17:02;19.80;99.90
24814;DHT22;12904;50.088;11.414;2022-08-20T07:19:28;19.80;99.90
24814;DHT22;12904;50.088;11.414;2022-08-20T07:21:53;20.00;99.90
24814;DHT22;12904;50.088;11.414;2022-08-20T07:24:19;20.00;99.90
24814;DHT22;12904;50.088;11.414;2022-08-20T07:26:45;20.10;99.90
24814;DHT22;12904;50.088;11.414;2022-08-20T07:29:10;20.20;99.90
24814;DHT22;12904;50.088;11.414;2022-08-20T07:31:36;20.30;99.90
24814;DHT22;12904;50.088;11.414;2022-08-20T07:34:20;20.30;99.90
24814;DHT22;12904;50.088;11.414;2022-08-20T07:36:46;20.50;99.90
24814;DHT22;12904;50.088;11.414;2022-08-20T07:39:13;20.70;99.90
24814;DHT22;12904;50.088;11.414;2022-08-20T07:41:39;20.90;99.90
24814;DHT22;12904;50.088;11.414;2022-08-20T07:44:05;21.10;99.90
24814;DHT22;12904;50.088;11.414;2022-08-20T07:46:31;21.20;99.90
24814;DHT22;12904;50.088;11.414;2022-08-20T07:48:56;21.20;99.90
24814;DHT22;12904;50.088;11.414;2022-08-20T07:51:22;21.20;99.90
24814;DHT22;12904;50.088;11.414;2022-08-20T07:53:49;21.30;99.90
24814;DHT22;12904;50.088;11.414;2022-08-20T07:56:18;21.40;99.90
24814;DHT22;12904;50.088;11.414;2022-08-20T07:58:48;21.50;99.90
24814;DHT22;12904;50.088;11.414;2022-08-20T08:01:19;21.70;99.90
24814;DHT22;12904;50.088;11.414;2022-08-20T08:03:45;21.70;99.90
24814;DHT22;12904;50.088;11.414;2022-08-20T08:06:11;21.70;99.90
24814;DHT22;12904;50.088;11.414;2022-08-20T08:08:38;21.70;99.90
24814;DHT22;12904;50.088;11.414;2022-08-20T08:11:05;21.80;99.90
24814;DHT22;12904;50.088;11.414;2022-08-20T08:13:37;21.80;99.90
24814;DHT22;12904;50.088;11.414;2022-08-20T08:16:05;21.80;99.90
24814;DHT22;12904;50.088;11.414;2022-08-20T08:18:50;21.60;99.90
24814;DHT22;12904;50.088;11.414;2022-08-20T08:21:16;21.50;99.90
24814;DHT22;12904;50.088;11.414;2022-08-20T08:23:43;21.50;99.90
24814;DHT22;12904;50.088;11.414;2022-08-20T08:26:11;21.50;99.90
24814;DHT22;12904;50.088;11.414;2022-08-20T08:28:39;21.60;99.90
24814;DHT22;12904;50.088;11.414;2022-08-20T08:31:06;21.80;99.90
24814;DHT22;12904;50.088;11.414;2022-08-20T08:33:32;21.80;99.90
24814;DHT22;12904;50.088;11.414;2022-08-20T08:36:05;21.70;99.90
24814;DHT22;12904;50.088;11.414;2022-08-20T08:38:33;21.90;99.90
24814;DHT22;12904;50.088;11.414;2022-08-20T08:43:39;22.10;99.90
24814;DHT22;12904;50.088;11.414;2022-08-20T08:46:09;22.30;99.90
24814;DHT22;12904;50.088;11.414;2022-08-20T08:48:38;22.50;99.90
24814;DHT22;12904;50.088;11.414;2022-08-20T08:51:09;22.60;99.90
24814;DHT22;12904;50.088;11.414;2022-08-20T08:53:41;22.70;99.90
24814;DHT22;12904;50.088;11.414;2022-08-20T08:56:09;22.90;99.90
24814;DHT22;12904;50.088;11.414;2022-08-20T08:58:35;23.00;99.90
24814;DHT22;12904;50.088;11.414;2022-08-20T09:01:09;23.00;99.90
24814;DHT22;12904;50.088;11.414;2022-08-20T09:03:37;23.10;99.90
24814;DHT22;12904;50.088;11.414;2022-08-20T09:06:05;23.20;99.90
24814;DHT22;12904;50.088;11.414;2022-08-20T09:08:43;23.30;99.90
24814;DHT22;12904;50.088;11.414;2022-08-20T09:11:10;23.40;99.90
24814;DHT22;12904;50.088;11.414;2022-08-20T09:13:35;23.50;99.90
24814;DHT22;12904;50.088;11.414;2022-08-20T09:16:01;23.50;99.90
24814;DHT22;12904;50.088;11.414;2022-08-20T09:18:27;23.70;99.90
24814;DHT22;12904;50.088;11.414;2022-08-20T09:20:53;23.90;99.90
24814;DHT22;12904;50.088;11.414;2022-08-20T09:23:18;24.00;99.90
24814;DHT22;12904;50.088;11.414;2022-08-20T09:25:44;24.10;99.90
24814;DHT22;12904;50.088;11.414;2022-08-20T09:28:10;24.20;99.90
24814;DHT22;12904;50.088;11.414;2022-08-20T09:30:35;24.30;99.90
24814;DHT22;12904;50.088;11.414;2022-08-20T09:33:01;24.40;99.90
24814;DHT22;12904;50.088;11.414;2022-08-20T09:35:27;24.50;99.90
24814;DHT22;12904;50.088;11.414;2022-08-20T09:37:54;24.80;99.90
24814;DHT22;12904;50.088;11.414;2022-08-20T09:40:20;25.00;99.90
24814;DHT22;12904;50.088;11.414;2022-08-20T09:42:46;25.00;99.90
24814;DHT22;12904;50.088;11.414;2022-08-20T09:45:13;25.00;99.90
24814;DHT22;12904;50.088;11.414;2022-08-20T09:47:39;25.00;99.90
24814;DHT22;12904;50.088;11.414;2022-08-20T09:50:06;25.00;99.90
24814;DHT22;12904;50.088;11.414;2022-08-20T09:52:35;25.20;99.90
24814;DHT22;12904;50.088;11.414;2022-08-20T09:55:16;25.30;99.90
24814;DHT22;12904;50.088;11.414;2022-08-20T09:57:42;25.40;99.90
24814;DHT22;12904;50.088;11.414;2022-08-20T10:00:08;25.60;99.90
24814;DHT22;12904;50.088;11.414;2022-08-20T10:02:36;25.70;99.90
24814;DHT22;12904;50.088;11.414;2022-08-20T10:05:03;25.80;99.90
24814;DHT22;12904;50.088;11.414;2022-08-20T10:07:29;25.70;99.90
24814;DHT22;12904;50.088;11.414;2022-08-20T10:09:55;25.70;99.90
24814;DHT22;12904;50.088;11.414;2022-08-20T10:12:21;25.70;99.90
24814;DHT22;12904;50.088;11.414;2022-08-20T10:14:46;25.70;99.90
24814;DHT22;12904;50.088;11.414;2022-08-20T10:17:12;25.80;99.90
24814;DHT22;12904;50.088;11.414;2022-08-20T10:19:38;25.60;99.90
24814;DHT22;12904;50.088;11.414;2022-08-20T10:22:04;25.60;99.90
24814;DHT22;12904;50.088;11.414;2022-08-20T10:24:30;25.60;99.90
24814;DHT22;12904;50.088;11.414;2022-08-20T10:26:58;25.60;99.90
24814;DHT22;12904;50.088;11.414;2022-08-20T10:29:25;25.70;99.90
24814;DHT22;12904;50.088;11.414;2022-08-20T10:31:52;25.80;99.90
24814;DHT22;12904;50.088;11.414;2022-08-20T10:34:18;25.70;99.90
24814;DHT22;12904;50.088;11.414;2022-08-20T10:36:44;25.80;99.90
24814;DHT22;12904;50.088;11.414;2022-08-20T10:39:10;25.80;99.90
24814;DHT22;12904;50.088;11.414;2022-08-20T10:41:36;25.80;99.90
24814;DHT22;12904;50.088;11.414;2022-08-20T10:44:03;25.70;99.90
24814;DHT22;12904;50.088;11.414;2022-08-20T10:46:29;25.40;99.90
24814;DHT22;12904;50.088;11.414;2022-08-20T10:48:54;25.70;99.90
24814;DHT22;12904;50.088;11.414;2022-08-20T10:51:20;25.90;99.90
24814;DHT22;12904;50.088;11.414;2022-08-20T10:53:46;26.00;99.90
24814;DHT22;12904;50.088;11.414;2022-08-20T10:56:12;26.00;99.90
24814;DHT22;12904;50.088;11.414;2022-08-20T10:58:38;25.90;99.90
24814;DHT22;12904;50.088;11.414;2022-08-20T11:01:04;25.80;99.90
24814;DHT22;12904;50.088;11.414;2022-08-20T11:03:29;25.70;99.90
24814;DHT22;12904;50.088;11.414;2022-08-20T11:05:56;25.70;99.90
24814;DHT22;12904;50.088;11.414;2022-08-20T11:08:21;25.60;99.90
24814;DHT22;12904;50.088;11.414;2022-08-20T11:10:47;25.40;99.90
24814;DHT22;12904;50.088;11.414;2022-08-20T11:13:13;25.30;99.90
24814;DHT22;12904;50.088;11.414;2022-08-20T11:15:40;25.20;99.90
24814;DHT22;12904;50.088;11.414;2022-08-20T11:18:07;25.40;99.90
24814;DHT22;12904;50.088;11.414;2022-08-20T11:20:33;25.40;99.90
24814;DHT22;12904;50.088;11.414;2022-08-20T11:22:59;25.50;99.90
24814;DHT22;12904;50.088;11.414;2022-08-20T11:25:25;25.60;99.90
24814;DHT22;12904;50.088;11.414;2022-08-20T11:27:52;25.90;99.90
24814;DHT22;12904;50.088;11.414;2022-08-20T11:30:30;26.00;99.90
24814;DHT22;12904;50.088;11.414;2022-08-20T11:32:58;26.50;99.90
24814;DHT22;12904;50.088;11.414;2022-08-20T11:35:25;26.80;99.90
24814;DHT22;12904;50.088;11.414;2022-08-20T11:37:53;27.20;99.90
24814;DHT22;12904;50.088;11.414;2022-08-20T11:40:20;27.40;99.90
24814;DHT22;12904;50.088;11.414;2022-08-20T11:42:46;27.30;99.90
24814;DHT22;12904;50.088;11.414;2022-08-20T11:45:13;27.30;99.90
24814;DHT22;12904;50.088;11.414;2022-08-20T11:47:39;27.00;99.90
24814;DHT22;12904;50.088;11.414;2022-08-20T11:50:10;27.00;99.90
24814;DHT22;12904;50.088;11.414;2022-08-20T11:52:36;27.00;99.90
24814;DHT22;12904;50.088;11.414;2022-08-20T11:55:03;27.00;99.90
24814;DHT22;12904;50.088;11.414;2022-08-20T11:57:32;26.90;99.90
24814;DHT22;12904;50.088;11.414;2022-08-20T11:59:59;26.90;99.90
24814;DHT22;12904;50.088;11.414;2022-08-20T12:02:25;26.70;99.90
24814;DHT22;12904;50.088;11.414;2022-08-20T12:04:51;26.60;99.90
24814;DHT22;12904;50.088;11.414;2022-08-20T12:07:22;26.60;99.90
24814;DHT22;12904;50.088;11.414;2022-08-20T12:09:48;26.70;99.90
24814;DHT22;12904;50.088;11.414;2022-08-20T12:12:14;26.90;99.90
24814;DHT22;12904;50.088;11.414;2022-08-20T12:14:40;27.00;99.90
24814;DHT22;12904;50.088;11.414;2022-08-20T12:17:14;26.90;99.90
24814;DHT22;12904;50.088;11.414;2022-08-20T12:19:44;26.80;99.90
24814;DHT22;12904;50.088;11.414;2022-08-20T12:22:09;27.00;99.90
24814;DHT22;12904;50.088;11.414;2022-08-20T12:24:35;27.00;99.90
24814;DHT22;12904;50.088;11.414;2022-08-20T12:27:12;27.00;99.90
24814;DHT22;12904;50.088;11.414;2022-08-20T12:29:40;26.90;99.90
24814;DHT22;12904;50.088;11.414;2022-08-20T12:32:06;26.70;99.90
24814;DHT22;12904;50.088;11.414;2022-08-20T12:34:33;26.80;99.90
24814;DHT22;12904;50.088;11.414;2022-08-20T12:37:13;27.10;99.90
24814;DHT22;12904;50.088;11.414;2022-08-20T12:39:41;27.20;99.90
24814;DHT22;12904;50.088;11.414;2022-08-20T12:42:07;27.40;96.70
24814;DHT22;12904;50.088;11.414;2022-08-20T12:44:33;27.70;97.80
24814;DHT22;12904;50.088;11.414;2022-08-20T12:47:19;27.90;92.50
24814;DHT22;12904;50.088;11.414;2022-08-20T12:49:48;28.00;95.30
24814;DHT22;12904;50.088;11.414;2022-08-20T12:52:15;28.10;92.10
24814;DHT22;12904;50.088;11.414;2022-08-20T12:54:42;28.00;92.80
24814;DHT22;12904;50.088;11.414;2022-08-20T12:57:19;27.90;91.80
24814;DHT22;12904;50.088;11.414;2022-08-20T12:59:46;28.00;91.00
24814;DHT22;12904;50.088;11.414;2022-08-20T13:02:12;28.00;92.50
24814;DHT22;12904;50.088;11.414;2022-08-20T13:04:38;28.00;90.50
24814;DHT22;12904;50.088;11.414;2022-08-20T13:07:04;27.70;92.40
24814;DHT22;12904;50.088;11.414;2022-08-20T13:09:30;27.60;92.80
24814;DHT22;12904;50.088;11.414;2022-08-20T13:11:56;27.40;99.70
24814;DHT22;12904;50.088;11.414;2022-08-20T13:14:22;27.20;99.90
24814;DHT22;12904;50.088;11.414;2022-08-20T13:16:56;27.10;99.90
24814;DHT22;12904;50.088;11.414;2022-08-20T13:19:23;26.70;99.90
24814;DHT22;12904;50.088;11.414;2022-08-20T13:21:49;26.40;99.90
24814;DHT22;12904;50.088;11.414;2022-08-20T13:24:15;26.10;99.90
24814;DHT22;12904;50.088;11.414;2022-08-20T13:26:40;25.80;99.90
24814;DHT22;12904;50.088;11.414;2022-08-20T13:29:06;25.50;99.90
24814;DHT22;12904;50.088;11.414;2022-08-20T13:31:32;25.20;99.90
24814;DHT22;12904;50.088;11.414;2022-08-20T13:33:57;25.00;99.90
24814;DHT22;12904;50.088;11.414;2022-08-20T13:36:23;24.80;99.90
24814;DHT22;12904;50.088;11.414;2022-08-20T13:38:49;24.70;99.90
24814;DHT22;12904;50.088;11.414;2022-08-20T13:41:14;24.60;99.90
24814;DHT22;12904;50.088;11.414;2022-08-20T13:43:40;24.50;99.90
24814;DHT22;12904;50.088;11.414;2022-08-20T13:46:06;24.50;99.90
24814;DHT22;12904;50.088;11.414;2022-08-20T13:48:34;24.40;99.90
24814;DHT22;12904;50.088;11.414;2022-08-20T13:51:00;24.30;99.90
24814;DHT22;12904;50.088;11.414;2022-08-20T13:53:26;24.10;99.90
24814;DHT22;12904;50.088;11.414;2022-08-20T13:55:52;23.80;99.90
24814;DHT22;12904;50.088;11.414;2022-08-20T13:58:18;23.60;99.90
24814;DHT22;12904;50.088;11.414;2022-08-20T14:00:44;23.40;99.90
24814;DHT22;12904;50.088;11.414;2022-08-20T14:03:10;23.30;99.90
24814;DHT22;12904;50.088;11.414;2022-08-20T14:05:38;23.20;99.90
24814;DHT22;12904;50.088;11.414;2022-08-20T14:08:13;23.30;99.90
24814;DHT22;12904;50.088;11.414;2022-08-20T14:10:39;23.30;99.90
24814;DHT22;12904;50.088;11.414;2022-08-20T14:13:05;23.30;99.90
24814;DHT22;12904;50.088;11.414;2022-08-20T14:15:35;23.40;99.90
24814;DHT22;12904;50.088;11.414;2022-08-20T14:18:00;23.50;99.90
24814;DHT22;12904;50.088;11.414;2022-08-20T14:20:29;23.60;99.90
24814;DHT22;12904;50.088;11.414;2022-08-20T14:22:55;23.80;99.90
24814;DHT22;12904;50.088;11.414;2022-08-20T14:25:23;23.80;99.90
24814;DHT22;12904;50.088;11.414;2022-08-20T14:27:49;23.90;99.90
24814;DHT22;12904;50.088;11.414;2022-08-20T14:30:18;23.50;99.90
24814;DHT22;12904;50.088;11.414;2022-08-20T14:32:44;23.50;99.90
24814;DHT22;12904;50.088;11.414;2022-08-20T14:35:11;23.40;99.90
24814;DHT22;12904;50.088;11.414;2022-08-20T14:37:40;23.50;99.90
24814;DHT22;12904;50.088;11.414;2022-08-20T14:40:13;23.60;99.90
24814;DHT22;12904;50.088;11.414;2022-08-20T14:42:39;23.70;99.90
24814;DHT22;12904;50.088;11.414;2022-08-20T14:45:07;24.00;99.90
24814;DHT22;12904;50.088;11.414;2022-08-20T14:47:37;24.30;99.90
24814;DHT22;12904;50.088;11.414;2022-08-20T14:50:06;24.00;99.90
24814;DHT22;12904;50.088;11.414;2022-08-20T14:52:32;24.00;99.90
24814;DHT22;12904;50.088;11.414;2022-08-20T14:55:05;24.30;99.90
24814;DHT22;12904;50.088;11.414;2022-08-20T14:57:32;24.60;99.90
24814;DHT22;12904;50.088;11.414;2022-08-20T14:59:59;25.20;99.90
24814;DHT22;12904;50.088;11.414;2022-08-20T15:02:25;25.60;99.90
24814;DHT22;12904;50.088;11.414;2022-08-20T15:04:51;25.70;99.90
24814;DHT22;12904;50.088;11.414;2022-08-20T15:07:28;25.70;99.90
24814;DHT22;12904;50.088;11.414;2022-08-20T15:09:55;25.80;99.90
24814;DHT22;12904;50.088;11.414;2022-08-20T15:12:22;25.70;99.90
24814;DHT22;12904;50.088;11.414;2022-08-20T15:14:48;25.40;99.90
24814;DHT22;12904;50.088;11.414;2022-08-20T15:17:26;25.10;99.90
24814;DHT22;12904;50.088;11.414;2022-08-20T15:19:52;24.80;99.90
24814;DHT22;12904;50.088;11.414;2022-08-20T15:22:19;24.90;99.90
24814;DHT22;12904;50.088;11.414;2022-08-20T15:24:45;24.90;99.90
24814;DHT22;12904;50.088;11.414;2022-08-20T15:27:14;24.90;99.90
24814;DHT22;12904;50.088;11.414;2022-08-20T15:29:40;24.70;99.90